createdAt,value
2022-12-13T00:00:01.310Z,94.40
2022-12-13T00:02:30.351Z,94.50
2022-12-13T00:04:58.912Z,94.60
2022-12-13T00:07:27.822Z,94.80
2022-12-13T00:09:56.502Z,94.90
2022-12-13T00:12:25.383Z,94.50
2022-12-13T00:14:54.013Z,94.70
2022-12-13T00:17:23.120Z,94.90
2022-12-13T00:19:53.382Z,94.60
2022-12-13T00:22:22.271Z,94.60
2022-12-13T00:24:50.762Z,94.60
2022-12-13T00:27:19.613Z,94.60
2022-12-13T00:29:48.950Z,94.60
2022-12-13T00:32:17.870Z,94.70
2022-12-13T00:34:46.630Z,94.60
2022-12-13T00:37:16.224Z,94.70
2022-12-13T00:39:44.901Z,94.80
2022-12-13T00:42:13.900Z,94.80
2022-12-13T00:44:42.420Z,94.90
2022-12-13T00:47:12.023Z,94.90
2022-12-13T00:49:40.883Z,94.90
2022-12-13T00:52:09.824Z,94.90
2022-12-13T00:54:38.445Z,95.00
2022-12-13T00:57:07.351Z,94.90
2022-12-13T00:59:35.959Z,95.30
2022-12-13T01:02:05.045Z,95.00
2022-12-13T01:04:33.617Z,95.00
2022-12-13T01:07:02.617Z,95.10
2022-12-13T01:09:32.795Z,95.10
2022-12-13T01:12:05.574Z,95.00
2022-12-13T01:14:37.095Z,95.10
2022-12-13T01:17:06.500Z,95.10
2022-12-13T01:19:35.815Z,95.10
2022-12-13T01:22:07.664Z,95.10
2022-12-13T01:24:36.763Z,95.20
2022-12-13T01:27:05.665Z,95.10
2022-12-13T01:29:34.665Z,95.20
2022-12-13T01:32:05.153Z,95.20
2022-12-13T01:34:33.682Z,95.20
2022-12-13T01:37:02.865Z,95.20
2022-12-13T01:39:31.395Z,95.30
2022-12-13T01:42:07.304Z,95.30
2022-12-13T01:44:57.281Z,95.30
2022-12-13T01:47:28.964Z,95.40
2022-12-13T01:49:59.660Z,95.40
2022-12-13T01:52:30.993Z,95.40
2022-12-13T01:55:03.391Z,95.40
2022-12-13T01:57:35.164Z,95.70
2022-12-13T02:00:06.274Z,95.40
2022-12-13T02:02:36.403Z,95.40
2022-12-13T02:05:24.706Z,95.40
2022-12-13T02:07:54.626Z,95.40
2022-12-13T02:10:24.133Z,95.40
2022-12-13T02:12:53.386Z,95.40
2022-12-13T02:15:22.149Z,95.30
2022-12-13T02:18:31.854Z,95.40
2022-12-13T02:21:33.499Z,95.30
2022-12-13T02:24:13.045Z,95.20
2022-12-13T02:27:13.508Z,95.20
2022-12-13T02:30:22.703Z,95.30
2022-12-13T02:33:29.406Z,95.30
2022-12-13T02:36:20.617Z,95.10
2022-12-13T02:39:14.946Z,95.10
2022-12-13T02:41:58.960Z,94.90
2022-12-13T02:44:44.490Z,94.70
2022-12-13T02:47:23.087Z,94.50
2022-12-13T02:50:00.967Z,94.20
2022-12-13T02:52:31.610Z,93.90
2022-12-13T02:55:00.707Z,93.70
2022-12-13T02:57:32.009Z,93.60
2022-12-13T03:00:08.527Z,93.40
2022-12-13T03:03:06.441Z,93.30
2022-12-13T03:06:14.837Z,93.20
2022-12-13T03:09:29.778Z,93.20
2022-12-13T03:12:37.636Z,93.10
2022-12-13T03:15:24.719Z,93.10
2022-12-13T03:17:55.170Z,93.10
2022-12-13T03:20:27.478Z,93.10
2022-12-13T03:22:56.778Z,93.20
2022-12-13T03:25:32.531Z,93.30
2022-12-13T03:28:02.880Z,93.30
2022-12-13T03:30:34.011Z,93.30
2022-12-13T03:33:02.750Z,93.40
2022-12-13T03:35:34.840Z,93.40
2022-12-13T03:38:21.425Z,93.40
2022-12-13T03:40:56.688Z,93.40
2022-12-13T03:43:25.291Z,93.50
2022-12-13T03:45:55.725Z,93.70
2022-12-13T03:48:24.548Z,93.70
2022-12-13T03:50:54.496Z,93.80
2022-12-13T03:53:33.275Z,93.80
2022-12-13T03:56:06.203Z,93.80
2022-12-13T03:58:37.656Z,93.70
2022-12-13T04:01:09.848Z,93.90
2022-12-13T04:03:38.870Z,93.70
2022-12-13T04:06:08.221Z,94.00
2022-12-13T04:08:37.045Z,94.20
2022-12-13T04:11:26.308Z,94.20
2022-12-13T04:13:55.496Z,94.20
2022-12-13T04:16:24.733Z,93.90
2022-12-13T04:18:53.547Z,93.70
2022-12-13T04:21:22.372Z,93.70
2022-12-13T04:23:51.161Z,94.20
2022-12-13T04:26:20.265Z,93.70
2022-12-13T04:28:54.264Z,93.70
2022-12-13T04:31:24.060Z,93.40
2022-12-13T04:33:53.188Z,93.00
2022-12-13T04:36:31.070Z,92.80
2022-12-13T04:39:22.056Z,92.50
2022-12-13T04:41:55.052Z,92.30
2022-12-13T04:44:28.340Z,92.00
2022-12-13T04:47:01.047Z,91.80
2022-12-13T04:49:31.637Z,91.60
2022-12-13T04:52:02.570Z,91.50
2022-12-13T04:54:35.719Z,91.40
2022-12-13T04:57:08.475Z,91.30
2022-12-13T04:59:37.505Z,91.10
2022-12-13T05:02:07.361Z,91.10
2022-12-13T05:04:36.025Z,90.90
2022-12-13T05:07:04.869Z,90.80
2022-12-13T05:09:33.377Z,90.90
2022-12-13T05:12:03.294Z,90.70
2022-12-13T05:14:32.350Z,90.60
2022-12-13T05:17:01.967Z,90.50
2022-12-13T05:19:31.705Z,90.50
2022-12-13T11:04:27.148Z,90.40
2022-12-13T11:07:00.094Z,90.20
2022-12-13T17:14:25.721Z,90.30
2022-12-13T17:16:54.438Z,90.80
2022-12-13T17:19:25.262Z,91.10
2022-12-13T17:21:54.389Z,91.10
2022-12-13T17:24:24.061Z,91.10
2022-12-13T17:26:56.738Z,91.10
2022-12-13T17:41:54.624Z,90.90
2022-12-13T17:44:25.932Z,89.80
2022-12-13T17:46:55.720Z,89.70
2022-12-13T17:49:25.384Z,89.40
2022-12-13T17:51:54.726Z,89.00
2022-12-13T17:54:25.560Z,88.70
2022-12-13T17:56:54.734Z,88.40
2022-12-13T17:59:24.383Z,88.10
